Time;durP1;ratioP1;P1;durP2;ratioP2;P2;SDS_P1;SDS_P2;PMS_P1;PMS_P2;Temp;Humidity;BMP_temperature;BMP_pressure;BME280_temperature;BME280_humidity;BME280_pressure;Samples;Min_cycle;Max_cycle;Signal;HPM_P1;HPM_P2
2023/01/13 00:00:10;;;;;;;2.60;2.50;;;9.60;1.00;;;;;;6285123;28;20229;-54
2023/01/13 00:03:13;;;;;;;2.73;2.63;;;9.60;1.00;;;;;;6286366;28;20252;-56
2023/01/13 00:06:18;;;;;;;2.70;2.70;;;9.60;1.00;;;;;;6282541;28;20264;-57
2023/01/13 00:09:23;;;;;;;2.57;2.47;;;9.60;1.00;;;;;;6285169;28;20263;-57
2023/01/13 00:12:26;;;;;;;2.57;2.57;;;9.60;1.00;;;;;;6280303;28;20357;-57
2023/01/13 00:15:29;;;;;;;2.60;2.60;;;9.60;1.00;;;;;;6260282;28;20256;-56
2023/01/13 00:18:32;;;;;;;2.70;2.70;;;9.60;1.00;;;;;;6265877;28;20248;-56
2023/01/13 00:21:36;;;;;;;2.57;2.57;;;9.60;1.00;;;;;;6268823;28;20229;-56
2023/01/13 00:24:40;;;;;;;2.60;2.60;;;9.60;1.00;;;;;;6261232;28;20695;-55
2023/01/13 00:27:43;;;;;;;2.60;2.60;;;9.60;1.00;;;;;;6260336;28;20635;-55
2023/01/13 00:30:46;;;;;;;2.47;2.47;;;9.70;1.00;;;;;;6276806;28;20229;-56
2023/01/13 00:33:50;;;;;;;2.97;2.63;;;9.70;1.00;;;;;;6285157;28;20244;-57
2023/01/13 00:36:53;;;;;;;2.53;2.53;;;9.80;1.00;;;;;;6284886;28;20233;-55
2023/01/13 00:39:57;;;;;;;2.70;2.60;;;9.80;1.00;;;;;;6276178;28;20730;-55
2023/01/13 00:46:22;;;;;;;2.53;2.50;;;9.80;1.00;;;;;;6260062;28;20710;-55
2023/01/13 00:49:25;;;;;;;2.53;2.43;;;9.80;1.00;;;;;;6259525;28;20234;-56
2023/01/13 00:52:28;;;;;;;2.50;2.40;;;9.80;1.00;;;;;;6260164;28;20234;-57
2023/01/13 00:55:32;;;;;;;2.40;2.40;;;9.80;1.00;;;;;;6259819;28;20272;-56
2023/01/13 00:58:36;;;;;;;2.60;2.60;;;9.70;1.00;;;;;;6259067;28;20238;-56
2023/01/13 01:01:40;;;;;;;2.50;2.50;;;9.80;1.00;;;;;;6274754;28;20242;-56
2023/01/13 01:04:44;;;;;;;2.30;2.30;;;9.80;1.00;;;;;;6285736;28;20229;-56
2023/01/13 01:07:47;;;;;;;2.70;2.60;;;9.80;1.00;;;;;;6284358;28;20544;-55
2023/01/13 01:11:01;;;;;;;2.43;2.43;;;9.90;1.00;;;;;;6279384;28;20614;-56
2023/01/13 01:14:04;;;;;;;2.90;2.80;;;9.90;1.00;;;;;;6284621;28;20237;-56
2023/01/13 01:17:07;;;;;;;2.57;2.57;;;9.90;1.00;;;;;;6283566;28;20748;-56
2023/01/13 01:20:11;;;;;;;2.40;2.40;;;9.80;1.00;;;;;;6260696;28;20238;-55
2023/01/13 01:23:14;;;;;;;2.40;2.40;;;9.80;1.00;;;;;;6259840;28;20240;-56
2023/01/13 01:26:21;;;;;;;2.80;2.70;;;9.90;1.00;;;;;;6258031;28;20238;-55
2023/01/13 01:29:24;;;;;;;2.77;2.77;;;9.90;1.00;;;;;;6260854;28;20343;-55
2023/01/13 01:32:27;;;;;;;2.63;2.53;;;9.80;1.00;;;;;;6283241;28;20233;-56
2023/01/13 01:35:30;;;;;;;2.43;2.43;;;9.80;1.00;;;;;;6278851;28;20306;-57
2023/01/13 01:38:33;;;;;;;2.50;2.50;;;9.90;1.00;;;;;;6284146;28;20390;-57
2023/01/13 01:41:38;;;;;;;2.73;2.73;;;9.80;1.00;;;;;;6278724;28;20234;-56
2023/01/13 01:45:00;;;;;;;2.33;2.33;;;9.80;1.00;;;;;;6273323;28;20391;-56
2023/01/13 01:48:06;;;;;;;2.33;2.30;;;9.90;1.00;;;;;;6283194;28;20237;-56
2023/01/13 01:51:13;;;;;;;2.37;2.33;;;9.90;1.00;;;;;;6275275;28;20238;-54
2023/01/13 01:54:20;;;;;;;2.30;2.30;;;9.80;1.00;;;;;;6259250;28;20391;-56
2023/01/13 01:57:29;;;;;;;2.57;2.57;;;9.90;1.00;;;;;;6247301;28;20246;-55
2023/01/13 02:00:32;;;;;;;2.40;2.40;;;9.90;1.00;;;;;;6257645;28;20245;-55
2023/01/13 02:03:39;;;;;;;2.23;2.23;;;9.90;1.00;;;;;;6276747;28;20730;-56
2023/01/13 02:06:44;;;;;;;2.40;2.40;;;10.10;1.00;;;;;;6282967;28;20297;-57
2023/01/13 02:09:48;;;;;;;2.20;2.20;;;10.00;1.00;;;;;;6282821;28;20241;-56
2023/01/13 02:12:53;;;;;;;2.53;2.43;;;10.00;1.00;;;;;;6276485;28;20894;-56
2023/01/13 02:16:03;;;;;;;2.40;2.40;;;10.00;1.00;;;;;;6257894;28;20609;-56
2023/01/13 02:19:21;;;;;;;2.30;2.30;;;10.00;1.00;;;;;;6257650;28;20352;-56
2023/01/13 02:22:46;;;;;;;2.20;2.20;;;10.10;1.00;;;;;;6258778;28;20313;-56
2023/01/13 02:26:15;;;;;;;2.50;2.50;;;10.00;1.00;;;;;;6257830;28;20234;-56
2023/01/13 02:33:08;;;;;;;2.20;2.10;;;10.00;1.00;;;;;;6286507;28;20233;-56
2023/01/13 02:36:19;;;;;;;2.50;2.50;;;9.90;1.00;;;;;;6275756;28;20596;-56
2023/01/13 02:39:29;;;;;;;2.20;2.20;;;9.80;1.00;;;;;;6289542;28;20819;-57
2023/01/13 02:46:00;;;;;;;2.40;2.40;;;9.90;1.00;;;;;;6290810;28;20371;-56
2023/01/13 02:49:07;;;;;;;2.10;2.10;;;9.90;1.00;;;;;;6274294;28;20238;-56
2023/01/13 02:52:13;;;;;;;2.30;2.30;;;9.90;1.00;;;;;;6265435;28;20654;-57
2023/01/13 02:55:20;;;;;;;2.20;2.10;;;9.90;1.00;;;;;;6265248;28;20555;-55
2023/01/13 02:58:28;;;;;;;2.10;2.10;;;9.90;1.00;;;;;;6265765;28;20345;-54
2023/01/13 03:01:33;;;;;;;2.40;2.30;;;9.90;1.00;;;;;;6279969;28;20690;-56
2023/01/13 03:05:00;;;;;;;2.20;2.20;;;9.90;1.00;;;;;;6293352;28;20723;-56
2023/01/13 03:08:30;;;;;;;2.20;2.20;;;9.90;1.00;;;;;;6275976;28;20877;-55
2023/01/13 03:11:43;;;;;;;2.20;2.20;;;9.90;1.00;;;;;;6286972;28;20232;-56
2023/01/13 03:14:53;;;;;;;2.43;2.43;;;9.90;1.00;;;;;;6291476;28;20230;-54
2023/01/13 03:18:06;;;;;;;2.40;2.40;;;9.90;1.00;;;;;;6289980;28;20249;-56
2023/01/13 03:21:15;;;;;;;2.73;2.60;;;9.90;1.00;;;;;;6268788;28;20875;-56
2023/01/13 03:24:22;;;;;;;2.40;2.40;;;9.90;1.00;;;;;;6265623;28;20257;-55
2023/01/13 03:27:31;;;;;;;2.40;2.30;;;9.90;1.00;;;;;;6267982;28;20226;-57
2023/01/13 03:30:39;;;;;;;2.40;2.40;;;9.90;1.00;;;;;;6280937;28;20244;-56
2023/01/13 03:33:48;;;;;;;2.20;2.20;;;9.90;1.00;;;;;;6284042;28;20629;-56
2023/01/13 03:36:55;;;;;;;2.50;2.50;;;9.90;1.00;;;;;;6283600;28;20638;-55
2023/01/13 03:40:03;;;;;;;2.33;2.33;;;9.90;1.00;;;;;;6289335;28;20236;-55
2023/01/13 03:46:37;;;;;;;2.43;2.30;;;9.80;1.00;;;;;;6265092;28;20695;-56
2023/01/13 03:49:48;;;;;;;2.20;2.20;;;9.80;1.00;;;;;;6261113;28;20234;-56
2023/01/13 03:52:56;;;;;;;2.40;2.40;;;9.80;1.00;;;;;;6261601;28;20796;-56
2023/01/13 03:56:02;;;;;;;2.30;2.30;;;9.80;1.00;;;;;;6261417;28;20253;-57
2023/01/13 03:59:10;;;;;;;2.30;2.30;;;9.80;1.00;;;;;;6261592;28;20750;-56
2023/01/13 04:02:18;;;;;;;2.37;2.37;;;9.90;1.00;;;;;;6271545;28;20378;-56
2023/01/13 04:05:24;;;;;;;2.20;2.10;;;9.80;1.00;;;;;;6285215;28;20232;-56
2023/01/13 04:08:28;;;;;;;2.23;2.23;;;9.80;1.00;;;;;;6285307;28;20601;-55
2023/01/13 04:11:37;;;;;;;2.30;2.30;;;9.80;1.00;;;;;;6285976;28;20280;-56
2023/01/13 04:14:41;;;;;;;2.40;2.30;;;9.70;1.00;;;;;;6276091;28;20230;-56
2023/01/13 04:17:44;;;;;;;2.20;2.20;;;9.70;1.00;;;;;;6260779;28;20666;-56
2023/01/13 04:20:51;;;;;;;2.20;2.20;;;9.70;1.00;;;;;;6260449;28;20234;-56
2023/01/13 04:23:54;;;;;;;2.20;2.20;;;9.70;1.00;;;;;;6260616;28;20237;-56
2023/01/13 04:26:57;;;;;;;2.27;2.27;;;9.80;1.00;;;;;;6259605;28;20237;-56
2023/01/13 04:30:00;;;;;;;2.20;2.20;;;9.70;1.00;;;;;;6276456;28;20251;-56
2023/01/13 04:33:04;;;;;;;2.37;2.37;;;9.70;1.00;;;;;;6252564;28;20524;-57
2023/01/13 04:36:09;;;;;;;2.30;2.20;;;9.60;1.00;;;;;;6280954;28;20924;-57
2023/01/13 04:39:12;;;;;;;2.10;2.10;;;9.70;1.00;;;;;;6288492;28;20239;-55
2023/01/13 04:42:15;;;;;;;2.27;2.27;;;9.70;1.00;;;;;;6283635;28;20643;-56
2023/01/13 04:45:18;;;;;;;2.20;2.20;;;9.70;1.00;;;;;;6284780;28;20237;-56
2023/01/13 04:48:21;;;;;;;2.17;2.17;;;9.70;1.00;;;;;;6289285;28;20328;-55
2023/01/13 04:51:26;;;;;;;2.20;2.20;;;9.60;1.00;;;;;;6276928;28;20221;-55
2023/01/13 04:54:29;;;;;;;2.00;2.00;;;9.60;1.00;;;;;;6268879;28;20255;-55
2023/01/13 04:57:33;;;;;;;2.50;2.30;;;9.60;1.00;;;;;;6283845;28;20616;-57
2023/01/13 05:00:37;;;;;;;2.40;2.40;;;9.60;1.00;;;;;;6283513;28;20605;-56
2023/01/13 05:03:40;;;;;;;2.40;2.40;;;9.60;1.00;;;;;;6284441;28;20726;-56
2023/01/13 05:06:45;;;;;;;2.30;2.30;;;9.60;1.00;;;;;;6269673;28;20236;-56
2023/01/13 05:09:48;;;;;;;2.30;2.30;;;9.60;1.00;;;;;;6277647;28;20963;-56
2023/01/13 05:19:35;;;;;;;2.30;2.30;;;9.80;1.00;;;;;;6279463;28;20221;-56
2023/01/13 05:26:00;;;;;;;2.10;2.10;;;9.80;1.00;;;;;;6282012;28;20729;-56
2023/01/13 05:29:03;;;;;;;5.37;2.10;;;9.90;1.00;;;;;;6270833;28;20756;-57
2023/01/13 05:32:07;;;;;;;2.20;2.20;;;9.90;1.00;;;;;;6284540;28;20248;-56
2023/01/13 05:35:10;;;;;;;2.20;2.20;;;9.80;1.00;;;;;;6269760;28;20638;-56
2023/01/13 05:38:16;;;;;;;2.03;2.03;;;9.80;1.00;;;;;;6282920;28;20875;-56
2023/01/13 05:44:40;;;;;;;2.33;2.33;;;9.70;1.00;;;;;;6278586;28;20691;-56
2023/01/13 05:47:43;;;;;;;1.97;1.97;;;9.80;1.00;;;;;;6282350;28;20727;-56
2023/01/13 05:50:48;;;;;;;2.23;2.23;;;9.80;1.00;;;;;;6281719;28;20247;-56
2023/01/13 05:53:52;;;;;;;2.13;2.13;;;9.80;1.00;;;;;;6284790;28;20472;-56
2023/01/13 05:56:55;;;;;;;2.30;2.20;;;9.70;1.00;;;;;;6266008;28;20245;-56
2023/01/13 05:59:58;;;;;;;2.40;2.30;;;9.80;1.00;;;;;;6277331;28;20603;-56
2023/01/13 06:03:01;;;;;;;1.90;1.90;;;9.80;1.00;;;;;;6283472;28;20251;-56
2023/01/13 06:06:07;;;;;;;2.57;2.37;;;9.80;1.00;;;;;;6295969;28;20421;-55
2023/01/13 06:09:12;;;;;;;2.30;2.30;;;9.80;1.00;;;;;;6267382;28;20318;-57
2023/01/13 06:12:15;;;;;;;2.30;2.30;;;9.80;1.00;;;;;;6278059;28;20470;-56
2023/01/13 06:15:18;;;;;;;2.27;2.27;;;9.80;1.00;;;;;;6277588;28;20237;-56
2023/01/13 06:18:21;;;;;;;2.10;2.10;;;9.80;1.00;;;;;;6282547;28;20249;-56
2023/01/13 06:21:24;;;;;;;2.30;2.30;;;9.70;1.00;;;;;;6272442;28;20267;-56
2023/01/13 06:24:29;;;;;;;2.30;2.20;;;9.70;1.00;;;;;;6278424;28;20367;-55
2023/01/13 06:27:32;;;;;;;2.30;2.20;;;9.70;1.00;;;;;;6280457;28;20230;-55
2023/01/13 06:30:38;;;;;;;2.37;2.27;;;9.80;1.00;;;;;;6265196;28;20702;-55
2023/01/13 06:33:44;;;;;;;2.43;2.43;;;9.70;1.00;;;;;;6275775;28;20229;-56
2023/01/13 06:36:52;;;;;;;2.30;2.30;;;9.70;1.00;;;;;;6279011;28;20280;-55
2023/01/13 06:39:59;;;;;;;2.20;2.10;;;9.70;1.00;;;;;;6281247;28;20725;-56
2023/01/13 06:43:14;;;;;;;2.37;2.27;;;9.70;1.00;;;;;;6272318;28;20863;-55
2023/01/13 06:46:18;;;;;;;2.43;2.30;;;9.70;1.00;;;;;;6276882;28;20244;-57
2023/01/13 06:49:21;;;;;;;2.23;2.23;;;9.70;1.00;;;;;;6272743;28;20332;-55
2023/01/13 06:52:26;;;;;;;2.73;2.60;;;9.80;1.00;;;;;;6281963;28;20232;-56
2023/01/13 06:55:30;;;;;;;2.60;2.50;;;9.80;1.00;;;;;;6278375;28;20233;-56
2023/01/13 06:58:33;;;;;;;3.03;2.80;;;9.90;1.00;;;;;;6280121;28;20229;-55
2023/01/13 07:01:36;;;;;;;2.20;2.20;;;9.80;1.00;;;;;;6274395;28;20225;-57
2023/01/13 07:04:39;;;;;;;2.53;2.53;;;9.80;1.00;;;;;;6279239;28;20221;-56
2023/01/13 07:07:42;;;;;;;2.57;2.47;;;9.70;1.00;;;;;;6284909;28;20252;-56
2023/01/13 07:10:47;;;;;;;2.47;2.40;;;9.80;1.00;;;;;;6276138;28;20403;-56
2023/01/13 07:17:10;;;;;;;2.03;1.93;;;9.80;1.00;;;;;;6285693;28;20229;-56
2023/01/13 07:20:13;;;;;;;3.70;2.70;;;9.80;1.00;;;;;;6277346;28;20609;-55
2023/01/13 07:23:16;;;;;;;2.27;2.27;;;9.80;1.00;;;;;;6272883;28;20240;-55
2023/01/13 07:26:21;;;;;;;2.30;2.30;;;9.90;1.00;;;;;;6276140;28;20232;-55
2023/01/13 07:29:24;;;;;;;2.47;2.37;;;9.90;1.00;;;;;;6280606;28;20229;-55
2023/01/13 07:32:27;;;;;;;2.50;2.40;;;9.90;1.00;;;;;;6270562;28;20443;-56
2023/01/13 07:35:30;;;;;;;2.40;2.40;;;10.00;1.00;;;;;;6282502;28;20237;-55
2023/01/13 07:38:34;;;;;;;2.40;2.30;;;10.00;1.00;;;;;;6283132;28;20235;-56
2023/01/13 07:44:58;;;;;;;2.50;2.50;;;10.00;1.00;;;;;;6241681;28;20714;-55
2023/01/13 07:48:01;;;;;;;2.50;2.30;;;10.00;1.00;;;;;;6277103;28;20241;-55
2023/01/13 07:51:06;;;;;;;2.47;2.40;;;10.00;1.00;;;;;;6284086;28;20233;-57
2023/01/13 07:54:09;;;;;;;2.20;2.20;;;10.00;1.00;;;;;;6286869;28;20241;-55
2023/01/13 07:57:13;;;;;;;3.17;2.60;;;10.10;1.00;;;;;;6287845;28;20872;-55
2023/01/13 08:00:17;;;;;;;2.50;2.30;;;10.00;1.00;;;;;;6280757;28;20244;-56
2023/01/13 08:03:21;;;;;;;2.37;2.37;;;10.00;1.00;;;;;;6286429;28;20640;-55
2023/01/13 08:06:24;;;;;;;2.20;2.20;;;9.90;1.00;;;;;;6275605;28;20233;-56
2023/01/13 08:09:27;;;;;;;2.47;2.33;;;10.00;1.00;;;;;;6283626;28;20229;-56
2023/01/13 08:16:00;;;;;;;2.20;2.20;;;10.00;1.00;;;;;;6274796;28;20351;-55
2023/01/13 08:19:04;;;;;;;3.27;3.17;;;10.00;1.00;;;;;;6266267;28;20260;-55
2023/01/13 08:22:07;;;;;;;2.33;2.20;;;9.90;1.00;;;;;;6282023;28;20298;-56
2023/01/13 08:25:10;;;;;;;2.17;2.17;;;10.00;1.00;;;;;;6287347;28;20232;-55
2023/01/13 08:28:16;;;;;;;2.63;2.53;;;9.90;1.00;;;;;;6287416;28;20722;-56
2023/01/13 08:31:20;;;;;;;2.10;2.10;;;9.90;1.00;;;;;;6276996;28;20245;-55
2023/01/13 08:34:23;;;;;;;2.50;2.50;;;10.10;1.00;;;;;;6282713;28;20252;-56
2023/01/13 08:37:26;;;;;;;2.33;2.33;;;9.80;1.00;;;;;;6278334;28;20618;-55
2023/01/13 08:40:29;;;;;;;2.43;2.43;;;9.90;1.00;;;;;;6271352;28;20237;-55
2023/01/13 08:43:33;;;;;;;2.60;2.60;;;9.80;1.00;;;;;;6284614;28;20411;-55
2023/01/13 08:46:37;;;;;;;5.30;4.90;;;9.80;1.00;;;;;;6280942;28;20237;-56
2023/01/13 08:49:40;;;;;;;2.60;2.53;;;9.70;1.00;;;;;;6288703;28;20635;-56
2023/01/13 08:52:43;;;;;;;2.57;2.47;;;9.80;1.00;;;;;;6273239;28;20562;-56
2023/01/13 08:55:46;;;;;;;2.80;2.70;;;9.80;1.00;;;;;;6287325;28;20238;-55
2023/01/13 08:58:51;;;;;;;2.57;2.40;;;9.80;1.00;;;;;;6288015;28;20237;-54
2023/01/13 09:01:54;;;;;;;2.77;2.77;;;9.80;1.00;;;;;;6274662;28;20241;-56
2023/01/13 09:04:59;;;;;;;2.50;2.50;;;9.80;1.00;;;;;;6281514;28;20471;-56
2023/01/13 09:08:02;;;;;;;2.73;2.73;;;9.80;1.00;;;;;;6288494;28;20237;-55
2023/01/13 09:13:10;;;;;;;2.93;2.83;;;9.80;1.00;;;;;;6273272;28;20703;-55
2023/01/13 09:14:32;;;;;;;3.43;3.33;;;9.70;1.00;;;;;;6283528;28;20259;-56
2023/01/13 09:17:35;;;;;;;7.60;2.77;;;9.70;1.00;;;;;;6286022;28;20355;-55
2023/01/13 09:20:39;;;;;;;3.47;3.37;;;9.70;1.00;;;;;;6287864;28;20460;-56
2023/01/13 09:23:42;;;;;;;4.23;3.73;;;9.70;1.00;;;;;;6296042;28;20375;-55
2023/01/13 09:26:45;;;;;;;2.97;2.83;;;9.70;1.00;;;;;;6277763;28;20247;-56
2023/01/13 09:29:49;;;;;;;2.87;2.67;;;9.70;1.00;;;;;;6276818;28;20249;-55
2023/01/13 09:34:58;;;;;;;3.03;2.83;;;9.70;1.00;;;;;;6278804;28;20239;-55
2023/01/13 09:36:16;;;;;;;3.00;2.83;;;9.70;1.00;;;;;;6281918;28;20606;-56
2023/01/13 09:39:19;;;;;;;3.37;3.20;;;9.70;1.00;;;;;;6276127;28;20242;-55
2023/01/13 09:45:59;;;;;;;2.90;2.80;;;9.90;1.00;;;;;;6280733;28;20612;-55
2023/01/13 09:49:03;;;;;;;4.53;4.20;;;9.90;1.00;;;;;;6282423;28;20236;-60
2023/01/13 09:52:13;;;;;;;2.50;2.50;;;9.90;1.00;;;;;;6285952;28;20587;-55
2023/01/13 09:55:18;;;;;;;3.53;3.13;;;10.00;1.00;;;;;;6283682;28;20665;-55
2023/01/13 09:58:23;;;;;;;2.97;2.77;;;9.80;1.00;;;;;;6281858;28;20246;-55
2023/01/13 10:01:33;;;;;;;3.10;3.07;;;9.80;1.00;;;;;;6281431;28;20237;-56
2023/01/13 10:04:36;;;;;;;3.10;3.00;;;9.70;1.00;;;;;;6275650;28;20232;-54
2023/01/13 10:07:47;;;;;;;2.80;2.70;;;9.70;1.00;;;;;;6286238;28;20481;-54
2023/01/13 10:10:54;;;;;;;3.70;3.10;;;9.80;1.00;;;;;;6284018;28;20272;-55
2023/01/13 10:14:00;;;;;;;2.73;2.67;;;9.70;1.00;;;;;;6276590;28;20538;-55
2023/01/13 10:17:12;;;;;;;2.90;2.70;;;9.70;1.00;;;;;;6282799;28;20241;-55
2023/01/13 10:20:21;;;;;;;3.13;3.03;;;9.60;1.00;;;;;;6274457;28;20251;-56
2023/01/13 10:23:38;;;;;;;3.03;2.70;;;9.60;1.00;;;;;;6280555;28;20644;-56
2023/01/13 10:26:52;;;;;;;2.27;2.27;;;9.60;1.00;;;;;;6278361;28;20316;-56
2023/01/13 10:29:55;;;;;;;2.83;2.73;;;9.70;1.00;;;;;;6272086;28;20636;-56
2023/01/13 10:33:01;;;;;;;2.90;2.77;;;9.70;1.00;;;;;;6283709;28;20240;-56
2023/01/13 10:36:13;;;;;;;3.77;3.13;;;9.60;1.00;;;;;;6274954;28;20228;-55
2023/01/13 10:39:19;;;;;;;2.57;2.47;;;9.60;1.00;;;;;;6287445;28;20243;-55
2023/01/13 10:42:24;;;;;;;2.60;2.50;;;9.50;1.00;;;;;;6281307;28;20634;-56
2023/01/13 10:45:27;;;;;;;3.37;3.17;;;9.50;1.00;;;;;;6286470;28;20244;-55
2023/01/13 10:48:40;;;;;;;4.57;2.70;;;9.50;1.00;;;;;;6286011;28;20243;-56
2023/01/13 10:51:44;;;;;;;3.23;3.13;;;9.50;1.00;;;;;;6276203;28;20245;-56
2023/01/13 10:54:52;;;;;;;2.70;2.60;;;9.50;1.00;;;;;;6281998;28;20730;-56
2023/01/13 10:57:55;;;;;;;3.23;3.03;;;9.60;1.00;;;;;;6288756;28;20251;-56
2023/01/13 11:01:00;;;;;;;2.83;2.63;;;9.60;1.00;;;;;;6277111;28;20237;-56
2023/01/13 11:04:27;;;;;;;2.80;2.70;;;9.50;1.00;;;;;;6296383;28;20248;-56
2023/01/13 11:07:33;;;;;;;3.00;2.80;;;9.60;1.00;;;;;;6282364;28;20253;-57
2023/01/13 11:10:46;;;;;;;2.90;2.87;;;9.60;1.00;;;;;;6279946;28;20622;-56
2023/01/13 11:17:30;;;;;;;2.97;2.63;;;9.70;1.00;;;;;;6288933;28;20230;-55
2023/01/13 11:20:40;;;;;;;2.50;2.50;;;9.80;1.00;;;;;;6282241;28;20234;-58
2023/01/13 11:23:50;;;;;;;2.43;2.30;;;9.90;1.00;;;;;;6283137;28;20318;-56
2023/01/13 11:26:58;;;;;;;2.47;2.47;;;10.10;1.00;;;;;;6283704;28;20244;-55
2023/01/13 11:30:09;;;;;;;2.50;2.40;;;10.20;1.00;;;;;;6279450;28;20375;-56
2023/01/13 11:33:35;;;;;;;2.73;2.70;;;10.40;1.00;;;;;;6284068;28;20237;-55
2023/01/13 11:36:44;;;;;;;2.80;2.70;;;10.60;1.00;;;;;;6281843;28;20468;-56
2023/01/13 11:39:55;;;;;;;4.30;2.90;;;10.50;1.00;;;;;;6287564;28;20302;-56
2023/01/13 11:43:04;;;;;;;2.87;2.60;;;10.60;1.00;;;;;;6285788;28;20233;-55
2023/01/13 11:46:10;;;;;;;2.70;2.60;;;10.50;1.00;;;;;;6287355;28;20236;-56
2023/01/13 11:49:22;;;;;;;2.70;2.60;;;10.50;1.00;;;;;;6291771;28;20609;-56
2023/01/13 11:52:40;;;;;;;2.80;2.60;;;10.50;1.00;;;;;;6286388;28;20234;-56
2023/01/13 11:55:53;;;;;;;2.53;2.33;;;10.60;1.00;;;;;;6289352;28;20233;-55
2023/01/13 11:59:31;;;;;;;2.57;2.47;;;10.60;1.00;;;;;;6285651;28;20241;-56
2023/01/13 12:02:48;;;;;;;3.13;2.87;;;10.60;1.00;;;;;;6286809;28;20244;-56
2023/01/13 12:06:07;;;;;;;2.50;2.40;;;10.50;1.00;;;;;;6292333;28;20248;-58
2023/01/13 12:09:30;;;;;;;2.77;2.57;;;10.50;1.00;;;;;;6283173;28;20590;-57
2023/01/13 12:12:46;;;;;;;2.70;2.70;;;10.60;1.00;;;;;;6278336;28;20229;-56
2023/01/13 12:15:58;;;;;;;3.13;2.93;;;10.70;1.00;;;;;;6281252;28;20229;-59
2023/01/13 12:19:24;;;;;;;2.63;2.43;;;10.70;1.00;;;;;;6284016;28;20725;-56
2023/01/13 12:22:30;;;;;;;3.03;2.80;;;10.70;1.00;;;;;;6280544;28;20362;-55
2023/01/13 12:25:40;;;;;;;4.97;2.63;;;10.70;1.00;;;;;;6273361;28;20701;-57
2023/01/13 12:28:49;;;;;;;2.70;2.50;;;10.70;1.00;;;;;;6278928;28;20243;-56
2023/01/13 12:31:52;;;;;;;2.73;2.63;;;10.80;1.00;;;;;;6285257;28;20256;-56
2023/01/13 12:35:11;;;;;;;3.10;2.77;;;10.70;1.00;;;;;;6277581;28;20657;-57
2023/01/13 12:38:21;;;;;;;3.27;2.97;;;10.80;1.00;;;;;;6286597;28;20233;-56
2023/01/13 12:44:15;;;;;;;2.87;2.63;;;10.80;1.00;;;;;;6279241;28;20611;-57
2023/01/13 12:45:27;;;;;;;4.53;3.10;;;10.70;1.00;;;;;;6296736;28;20743;-55
2023/01/13 12:49:03;;;;;;;4.97;3.00;;;10.60;1.00;;;;;;6275221;28;20234;-56
2023/01/13 12:52:17;;;;;;;3.53;2.97;;;10.60;1.00;;;;;;6287485;28;20609;-56
2023/01/13 12:55:21;;;;;;;2.80;2.70;;;10.70;1.00;;;;;;6286250;28;20236;-57
2023/01/13 12:58:29;;;;;;;3.40;3.10;;;10.70;1.00;;;;;;6282982;28;20553;-56
2023/01/13 13:01:35;;;;;;;4.50;2.77;;;10.70;1.00;;;;;;6292059;28;20252;-56
2023/01/13 13:04:44;;;;;;;4.80;3.07;;;10.60;1.00;;;;;;6285353;28;20709;-55
2023/01/13 13:07:52;;;;;;;3.90;2.93;;;10.50;1.00;;;;;;6281585;28;20683;-56
2023/01/13 13:11:01;;;;;;;3.40;2.80;;;10.50;1.00;;;;;;6283121;28;20308;-59
2023/01/13 13:14:06;;;;;;;4.20;3.43;;;10.40;1.00;;;;;;6272968;28;20238;-56
2023/01/13 13:17:39;;;;;;;4.40;3.07;;;10.30;1.00;;;;;;6282309;28;20241;-55
2023/01/13 13:21:05;;;;;;;4.07;2.80;;;10.40;1.00;;;;;;6279048;28;20614;-56
2023/01/13 13:24:11;;;;;;;4.90;3.10;;;10.40;1.00;;;;;;6273045;28;20230;-56
2023/01/13 13:27:17;;;;;;;2.90;2.70;;;10.40;1.00;;;;;;6295653;28;20228;-56
2023/01/13 13:30:28;;;;;;;3.23;2.80;;;10.40;1.00;;;;;;6285006;28;20704;-57
2023/01/13 13:33:46;;;;;;;2.70;2.60;;;10.40;1.00;;;;;;6285478;28;20221;-56
2023/01/13 13:37:25;;;;;;;4.60;2.63;;;10.40;1.00;;;;;;6276785;28;20245;-56
2023/01/13 13:47:15;;;;;;;5.93;4.57;;;10.60;1.00;;;;;;6274010;28;20233;-56
2023/01/13 13:50:20;;;;;;;4.13;3.27;;;10.60;1.00;;;;;;6284400;28;20249;-57
2023/01/13 13:53:27;;;;;;;3.37;3.17;;;10.50;1.00;;;;;;6280988;28;20258;-57
2023/01/13 13:56:35;;;;;;;3.10;2.90;;;10.50;1.00;;;;;;6281949;28;20228;-56
2023/01/13 13:59:39;;;;;;;3.07;2.87;;;10.50;1.00;;;;;;6277657;28;20825;-57
2023/01/13 14:02:50;;;;;;;3.43;3.13;;;10.50;1.00;;;;;;6285162;28;20490;-57
2023/01/13 14:05:56;;;;;;;4.30;3.93;;;10.40;1.00;;;;;;6285518;28;20233;-56
2023/01/13 14:09:00;;;;;;;5.03;3.40;;;10.30;1.00;;;;;;6281574;28;20237;-57
2023/01/13 14:12:05;;;;;;;4.60;3.40;;;10.20;1.00;;;;;;6280789;28;20713;-56
2023/01/13 14:15:31;;;;;;;3.13;2.80;;;10.10;1.00;;;;;;6279865;28;20600;-56
2023/01/13 14:18:44;;;;;;;3.57;3.10;;;10.10;1.00;;;;;;6284789;28;20229;-57
2023/01/13 14:21:48;;;;;;;3.27;3.03;;;10.10;1.00;;;;;;6288503;28;20268;-56
2023/01/13 14:24:54;;;;;;;4.00;3.70;;;10.10;1.00;;;;;;6278417;28;20239;-56
2023/01/13 14:28:00;;;;;;;7.23;3.53;;;10.10;1.00;;;;;;6276078;28;20237;-57
2023/01/13 14:31:05;;;;;;;3.37;3.17;;;10.10;1.00;;;;;;6279366;28;20328;-56
2023/01/13 14:34:12;;;;;;;6.27;3.27;;;10.10;1.00;;;;;;6273714;28;20257;-55
2023/01/13 14:37:38;;;;;;;4.03;3.20;;;10.00;1.00;;;;;;6276359;28;20238;-56
2023/01/13 14:40:45;;;;;;;3.47;3.17;;;10.00;1.00;;;;;;6283139;28;20237;-56
2023/01/13 14:43:50;;;;;;;3.37;3.10;;;10.00;1.00;;;;;;6268848;28;20241;-56
2023/01/13 14:46:55;;;;;;;3.57;3.33;;;10.00;1.00;;;;;;6277994;28;20669;-55
2023/01/13 14:50:04;;;;;;;3.23;2.93;;;10.10;1.00;;;;;;6277710;28;20891;-56
2023/01/13 14:53:27;;;;;;;3.20;2.90;;;10.00;1.00;;;;;;6279016;28;20370;-56
2023/01/13 14:56:39;;;;;;;3.90;3.30;;;10.00;1.00;;;;;;6276195;28;20229;-57
2023/01/13 14:59:47;;;;;;;5.57;3.57;;;10.10;1.00;;;;;;6292927;28;20748;-56
2023/01/13 15:03:00;;;;;;;3.83;3.20;;;10.00;1.00;;;;;;6283332;28;20233;-56
2023/01/13 15:06:23;;;;;;;6.23;3.73;;;10.00;1.00;;;;;;6278087;28;20234;-56
2023/01/13 15:09:28;;;;;;;4.13;3.33;;;10.00;1.00;;;;;;6282293;28;21211;-56
2023/01/13 15:12:37;;;;;;;5.87;4.23;;;9.90;1.00;;;;;;6285262;28;20230;-56
2023/01/13 15:15:40;;;;;;;5.13;3.67;;;9.90;1.00;;;;;;6269459;28;20399;-57
2023/01/13 15:18:43;;;;;;;3.97;3.40;;;9.90;1.00;;;;;;6280498;28;20841;-56
2023/01/13 15:21:49;;;;;;;4.00;3.70;;;9.90;1.00;;;;;;6278817;28;20245;-57
2023/01/13 15:24:55;;;;;;;4.10;3.80;;;9.90;1.00;;;;;;6281616;28;20230;-57
2023/01/13 15:27:58;;;;;;;4.33;4.00;;;9.90;1.00;;;;;;6275514;28;20504;-57
2023/01/13 15:31:02;;;;;;;3.50;3.20;;;9.90;1.00;;;;;;6276813;28;20622;-57
2023/01/13 15:34:05;;;;;;;3.67;3.40;;;9.80;1.00;;;;;;6270510;28;20373;-57
2023/01/13 15:37:10;;;;;;;3.77;3.03;;;9.70;1.00;;;;;;6276631;28;20226;-56
2023/01/13 15:40:16;;;;;;;3.53;3.27;;;9.60;1.00;;;;;;6276804;28;20364;-56
2023/01/13 15:46:43;;;;;;;12.43;4.93;;;9.50;1.00;;;;;;6290471;28;20714;-56
2023/01/13 15:49:46;;;;;;;5.17;3.80;;;9.40;1.00;;;;;;6283188;28;20822;-57
2023/01/13 15:52:51;;;;;;;3.57;3.30;;;9.40;1.00;;;;;;6282128;28;20233;-56
2023/01/13 15:55:57;;;;;;;3.70;3.50;;;9.40;1.00;;;;;;6284153;28;20256;-56
2023/01/13 15:59:00;;;;;;;4.10;3.67;;;9.40;1.00;;;;;;6277009;28;20749;-57
2023/01/13 16:02:03;;;;;;;6.10;3.63;;;9.30;1.00;;;;;;6277455;28;20248;-56
2023/01/13 16:05:07;;;;;;;3.60;3.37;;;9.40;1.00;;;;;;6282835;28;20232;-56
2023/01/13 16:08:14;;;;;;;6.60;3.03;;;9.40;1.00;;;;;;6277555;28;20248;-56
2023/01/13 16:11:17;;;;;;;5.13;4.00;;;9.40;1.00;;;;;;6281791;28;20226;-56
2023/01/13 16:14:20;;;;;;;4.67;3.73;;;9.50;1.00;;;;;;6288091;28;20365;-56
2023/01/13 16:17:29;;;;;;;4.20;3.80;;;9.40;1.00;;;;;;6275715;28;20233;-57
2023/01/13 16:20:32;;;;;;;6.10;4.10;;;9.40;1.00;;;;;;6286016;28;20244;-57
2023/01/13 16:23:36;;;;;;;4.13;3.83;;;9.30;1.00;;;;;;6283240;28;20316;-55
2023/01/13 16:26:39;;;;;;;4.63;3.30;;;9.30;1.00;;;;;;6295236;28;20606;-56
2023/01/13 16:29:42;;;;;;;4.13;3.80;;;9.30;1.00;;;;;;6286877;28;20241;-56
2023/01/13 16:32:46;;;;;;;4.00;3.60;;;9.20;1.00;;;;;;6290790;28;20256;-57
2023/01/13 16:35:49;;;;;;;8.70;6.20;;;9.20;1.00;;;;;;6273707;28;20234;-56
2023/01/13 16:39:21;;;;;;;3.53;3.30;;;9.30;1.00;;;;;;6281729;28;20237;-56
2023/01/13 16:42:24;;;;;;;4.33;4.03;;;9.30;1.00;;;;;;6283053;28;20489;-56
2023/01/13 16:45:28;;;;;;;4.20;3.57;;;9.30;1.00;;;;;;6282370;28;20231;-56
2023/01/13 16:48:31;;;;;;;6.13;3.57;;;9.30;1.00;;;;;;6274911;28;20656;-56
2023/01/13 16:51:34;;;;;;;3.67;3.40;;;9.30;1.00;;;;;;6283667;28;20263;-55
2023/01/13 16:54:38;;;;;;;5.37;3.90;;;9.30;1.00;;;;;;6283979;28;20228;-56
2023/01/13 16:57:41;;;;;;;3.27;3.10;;;9.30;1.00;;;;;;6277695;28;20764;-56
2023/01/13 17:00:45;;;;;;;5.60;3.67;;;9.20;1.00;;;;;;6289691;28;20236;-56
2023/01/13 17:03:50;;;;;;;3.83;3.30;;;9.20;1.00;;;;;;6294035;28;20259;-56
2023/01/13 17:06:57;;;;;;;3.40;3.10;;;9.20;1.00;;;;;;6281586;28;20232;-56
2023/01/13 17:10:01;;;;;;;4.73;3.90;;;9.20;1.00;;;;;;6283685;28;20602;-56
2023/01/13 17:13:04;;;;;;;4.30;3.57;;;9.10;1.00;;;;;;6274334;28;20713;-55
2023/01/13 17:16:21;;;;;;;4.73;3.23;;;9.00;1.00;;;;;;6274491;28;20229;-57
2023/01/13 17:19:25;;;;;;;3.53;3.23;;;9.00;1.00;;;;;;6277679;28;20256;-56
2023/01/13 17:22:29;;;;;;;4.70;3.50;;;9.10;1.00;;;;;;6273937;28;20234;-56
2023/01/13 17:25:34;;;;;;;3.67;3.47;;;9.10;1.00;;;;;;6287157;28;20233;-56
2023/01/13 17:28:37;;;;;;;8.03;4.00;;;9.00;1.00;;;;;;6278951;28;20350;-56
2023/01/13 17:31:40;;;;;;;3.50;3.23;;;8.90;1.00;;;;;;6280596;28;20233;-56